Time;durP1;ratioP1;P1;durP2;ratioP2;P2;SDS_P1;SDS_P2;PMS_P1;PMS_P2;Temp;Humidity;BMP_temperature;BMP_pressure;BME280_temperature;BME280_humidity;BME280_pressure;Samples;Min_cycle;Max_cycle;Signal;HPM_P1;HPM_P2
2023/06/22 00:00:52;;;;;;;6.55;2.70;;;21.30;78.70;;;;;;5059598;28;20109;-77
2023/06/22 00:03:19;;;;;;;5.55;2.72;;;21.30;78.50;;;;;;5058654;28;20128;-82
2023/06/22 00:05:45;;;;;;;4.43;2.00;;;21.30;78.40;;;;;;5059554;28;20474;-76
2023/06/22 00:08:12;;;;;;;4.70;2.42;;;21.20;78.20;;;;;;5041473;28;20033;-76
2023/06/22 00:10:37;;;;;;;4.72;2.47;;;21.20;78.20;;;;;;5058129;28;20075;-76
2023/06/22 00:13:04;;;;;;;6.32;2.85;;;21.20;78.20;;;;;;5059439;28;20032;-76
2023/06/22 00:15:29;;;;;;;5.10;2.55;;;21.20;78.20;;;;;;5041623;28;20414;-76
2023/06/22 00:17:57;;;;;;;4.57;2.30;;;21.10;78.10;;;;;;5056219;28;20096;-76
2023/06/22 00:20:29;;;;;;;4.15;1.88;;;21.10;78.20;;;;;;5048815;28;20080;-76
2023/06/22 00:22:56;;;;;;;4.93;2.08;;;21.10;78.50;;;;;;5022094;28;20045;-77
2023/06/22 00:25:22;;;;;;;3.88;1.83;;;21.10;78.80;;;;;;5039260;28;20029;-76
2023/06/22 00:27:48;;;;;;;4.85;1.80;;;21.00;78.80;;;;;;5038051;28;20119;-76
2023/06/22 00:30:17;;;;;;;3.92;2.08;;;21.00;78.90;;;;;;5038144;28;20037;-76
2023/06/22 00:32:44;;;;;;;3.45;1.60;;;21.00;78.90;;;;;;5022000;28;20030;-76
2023/06/22 00:35:10;;;;;;;4.72;1.80;;;21.00;78.60;;;;;;5036168;28;20032;-76
2023/06/22 00:37:41;;;;;;;4.22;2.08;;;20.90;78.50;;;;;;5034879;28;20021;-76
2023/06/22 00:40:11;;;;;;;4.50;2.10;;;20.90;78.40;;;;;;5034801;28;20029;-77
2023/06/22 00:42:38;;;;;;;6.70;2.10;;;20.90;78.40;;;;;;5034794;28;20394;-76
2023/06/22 00:45:05;;;;;;;6.32;1.92;;;20.90;78.60;;;;;;5018280;28;20029;-76
2023/06/22 00:47:31;;;;;;;3.70;1.50;;;20.80;78.70;;;;;;5018478;28;20485;-77
2023/06/22 00:49:57;;;;;;;4.30;2.22;;;20.80;78.90;;;;;;5018226;28;20021;-76
2023/06/22 00:52:29;;;;;;;4.10;1.70;;;20.70;79.10;;;;;;5018274;28;20026;-76
2023/06/22 00:54:57;;;;;;;4.20;2.42;;;20.70;79.40;;;;;;5035678;28;20032;-76
2023/06/22 00:57:27;;;;;;;4.82;2.20;;;20.70;79.60;;;;;;5034540;28;20021;-76
2023/06/22 00:59:54;;;;;;;5.45;2.78;;;20.60;79.80;;;;;;5035768;28;20108;-77
2023/06/22 01:02:19;;;;;;;5.00;2.20;;;20.60;80.00;;;;;;5017940;28;20375;-76
2023/06/22 01:04:45;;;;;;;5.60;2.30;;;20.60;80.30;;;;;;5034716;28;20029;-77
2023/06/22 01:07:18;;;;;;;5.93;2.80;;;20.50;80.40;;;;;;5034542;28;20112;-76
2023/06/22 01:09:58;;;;;;;3.88;2.17;;;20.50;80.50;;;;;;5034283;28;20029;-82
2023/06/22 01:12:27;;;;;;;6.50;2.63;;;20.50;80.80;;;;;;5035388;28;20056;-81
2023/06/22 01:15:21;;;;;;;6.40;2.42;;;20.40;80.90;;;;;;5035387;28;20031;-82
2023/06/22 01:17:48;;;;;;;5.07;2.40;;;20.40;81.40;;;;;;5035117;28;20039;-82
2023/06/22 01:20:15;;;;;;;5.57;2.33;;;20.30;81.30;;;;;;5035460;28;20292;-82
2023/06/22 01:23:03;;;;;;;5.13;2.20;;;20.40;81.40;;;;;;5034171;28;20065;-82
2023/06/22 01:25:53;;;;;;;5.00;2.50;;;20.30;81.60;;;;;;5034145;28;20061;-82
2023/06/22 01:28:47;;;;;;;5.70;2.90;;;20.30;81.80;;;;;;5035116;28;20117;-82
2023/06/22 01:31:25;;;;;;;6.28;2.10;;;20.20;82.00;;;;;;5033857;28;20018;-75
2023/06/22 01:33:54;;;;;;;4.65;2.63;;;20.20;82.10;;;;;;5033740;28;20040;-76
2023/06/22 01:36:22;;;;;;;6.55;3.33;;;20.20;82.10;;;;;;5034805;28;20429;-76
2023/06/22 01:38:49;;;;;;;5.00;2.50;;;20.10;82.20;;;;;;5034821;28;20105;-75
2023/06/22 01:41:16;;;;;;;4.43;2.53;;;20.10;82.40;;;;;;5033585;28;20545;-75
2023/06/22 01:43:43;;;;;;;6.03;3.13;;;20.10;82.70;;;;;;5017291;28;20029;-75
2023/06/22 01:46:10;;;;;;;6.22;2.60;;;20.10;82.80;;;;;;5032808;28;20489;-75
2023/06/22 01:48:35;;;;;;;4.82;2.65;;;20.00;82.80;;;;;;5016808;28;20033;-76
2023/06/22 01:51:02;;;;;;;6.10;2.83;;;20.00;82.80;;;;;;5017060;28;20136;-76
2023/06/22 01:53:28;;;;;;;3.83;2.15;;;20.00;83.00;;;;;;5033359;28;20109;-76
2023/06/22 01:55:53;;;;;;;8.50;2.40;;;19.90;83.00;;;;;;5033528;28;20052;-76
2023/06/22 01:58:23;;;;;;;6.00;2.88;;;19.90;83.10;;;;;;5016730;28;20021;-76
2023/06/22 02:00:55;;;;;;;4.25;2.17;;;19.90;83.20;;;;;;5033268;28;20056;-76
2023/06/22 02:03:30;;;;;;;5.10;2.55;;;19.90;83.30;;;;;;5033087;28;20473;-76
2023/06/22 02:06:03;;;;;;;5.95;2.60;;;19.90;83.40;;;;;;5034404;28;20018;-75
2023/06/22 02:08:32;;;;;;;7.38;2.95;;;19.80;83.40;;;;;;5034279;28;20086;-76
2023/06/22 02:10:59;;;;;;;4.85;2.47;;;19.80;83.40;;;;;;5032979;28;20076;-76
2023/06/22 02:13:25;;;;;;;5.25;2.70;;;19.80;83.50;;;;;;5034331;28;20474;-76
2023/06/22 02:15:51;;;;;;;5.75;3.20;;;19.80;83.60;;;;;;5016454;28;20025;-75
2023/06/22 02:18:17;;;;;;;4.38;2.38;;;19.80;83.80;;;;;;5034347;28;20028;-76
2023/06/22 02:20:42;;;;;;;5.00;2.50;;;19.80;83.90;;;;;;5033930;28;20060;-76
2023/06/22 02:23:09;;;;;;;4.80;2.58;;;19.70;84.00;;;;;;5016400;28;20022;-75
2023/06/22 02:25:35;;;;;;;4.95;2.58;;;19.70;84.10;;;;;;5032795;28;20048;-75
2023/06/22 02:28:01;;;;;;;5.13;2.80;;;19.70;84.20;;;;;;5032773;28;20017;-75
2023/06/22 02:30:27;;;;;;;5.00;2.78;;;19.70;84.30;;;;;;5016154;28;20029;-76
2023/06/22 02:33:01;;;;;;;5.43;3.42;;;19.70;84.30;;;;;;5034175;28;20436;-77
2023/06/22 02:35:31;;;;;;;5.28;3.28;;;19.70;84.50;;;;;;5017424;28;20025;-75
2023/06/22 02:37:59;;;;;;;7.88;4.38;;;19.70;84.50;;;;;;5016620;28;20028;-76
2023/06/22 02:40:25;;;;;;;6.47;3.95;;;19.70;84.60;;;;;;5032534;28;20025;-76
2023/06/22 02:42:51;;;;;;;6.32;3.70;;;19.60;84.60;;;;;;5032408;28;20554;-75
2023/06/22 02:45:16;;;;;;;8.05;3.75;;;19.60;84.70;;;;;;5016115;28;20124;-76
2023/06/22 02:47:42;;;;;;;6.13;3.22;;;19.60;84.80;;;;;;5016146;28;20037;-75
2023/06/22 02:50:08;;;;;;;5.72;3.60;;;19.60;84.90;;;;;;5015857;28;20120;-76
2023/06/22 02:52:34;;;;;;;6.40;2.90;;;19.60;85.00;;;;;;5015987;28;20589;-76
2023/06/22 02:54:59;;;;;;;6.35;3.17;;;19.60;85.10;;;;;;5032559;28;20032;-76
2023/06/22 02:57:25;;;;;;;7.10;3.40;;;19.50;85.10;;;;;;5031719;28;20013;-75
2023/06/22 02:59:51;;;;;;;7.50;3.88;;;19.50;85.20;;;;;;5032248;28;20033;-76
2023/06/22 03:02:17;;;;;;;7.85;3.00;;;19.40;85.30;;;;;;5032342;28;20030;-76
2023/06/22 03:04:43;;;;;;;8.13;4.15;;;19.40;85.40;;;;;;5032490;28;20375;-76
2023/06/22 03:07:08;;;;;;;8.15;4.78;;;19.40;85.60;;;;;;5015725;28;20022;-76
2023/06/22 03:09:34;;;;;;;7.57;3.75;;;19.40;85.70;;;;;;5015694;28;20033;-75
2023/06/22 03:12:01;;;;;;;6.93;4.65;;;19.40;85.70;;;;;;5033423;28;20104;-75
2023/06/22 03:14:27;;;;;;;10.32;5.00;;;19.40;86.10;;;;;;5015902;28;20107;-75
2023/06/22 03:16:53;;;;;;;7.68;4.32;;;19.40;86.20;;;;;;5032498;28;20026;-75
2023/06/22 03:19:19;;;;;;;7.68;4.53;;;19.40;86.30;;;;;;5031724;28;20073;-81
2023/06/22 03:21:45;;;;;;;7.05;4.30;;;19.30;86.30;;;;;;5032262;28;20091;-80
2023/06/22 03:24:11;;;;;;;11.93;4.90;;;19.30;86.40;;;;;;5033290;28;20100;-81
2023/06/22 03:26:36;;;;;;;6.90;4.38;;;19.30;86.70;;;;;;5015726;28;20034;-82
2023/06/22 03:29:03;;;;;;;7.25;4.40;;;19.30;86.90;;;;;;5015439;28;20032;-82
2023/06/22 03:31:28;;;;;;;7.28;4.38;;;19.30;87.10;;;;;;5031880;28;20025;-82
2023/06/22 03:33:54;;;;;;;8.73;4.38;;;19.30;88.00;;;;;;5031975;28;20029;-82
2023/06/22 03:36:19;;;;;;;8.43;5.30;;;19.30;87.50;;;;;;5031793;28;20029;-82
2023/06/22 03:38:46;;;;;;;8.95;5.38;;;19.30;87.90;;;;;;5015490;28;20026;-82
2023/06/22 03:41:12;;;;;;;10.60;7.10;;;19.30;88.10;;;;;;5033169;28;20026;-82
2023/06/22 03:43:38;;;;;;;11.80;7.15;;;19.20;88.40;;;;;;5033055;28;20037;-82
2023/06/22 03:46:04;;;;;;;15.00;7.40;;;19.20;88.60;;;;;;5031773;28;20057;-82
2023/06/22 03:48:29;;;;;;;17.65;8.48;;;19.20;88.80;;;;;;5031719;28;20037;-82
2023/06/22 03:50:55;;;;;;;12.75;8.68;;;19.20;89.30;;;;;;5033070;28;20029;-82
2023/06/22 03:53:21;;;;;;;13.85;8.65;;;19.20;89.40;;;;;;5031659;28;20500;-82
2023/06/22 03:55:51;;;;;;;16.85;8.88;;;19.20;89.90;;;;;;5031801;28;20390;-76
2023/06/22 03:58:18;;;;;;;12.57;8.68;;;19.20;90.10;;;;;;5031666;28;20038;-76
2023/06/22 04:00:51;;;;;;;14.18;9.13;;;19.20;90.20;;;;;;5015226;28;20040;-76
2023/06/22 04:03:20;;;;;;;15.60;8.85;;;19.20;90.30;;;;;;5015225;28;20048;-76
2023/06/22 04:05:46;;;;;;;12.18;8.48;;;19.20;90.30;;;;;;5032851;28;20018;-81
2023/06/22 04:08:13;;;;;;;13.60;9.50;;;19.10;90.40;;;;;;5031553;28;20541;-82
2023/06/22 04:10:38;;;;;;;12.20;8.70;;;19.10;90.50;;;;;;5035069;28;20050;-82
2023/06/22 04:13:04;;;;;;;11.55;8.85;;;19.10;90.60;;;;;;5036579;28;20045;-82
2023/06/22 04:15:30;;;;;;;11.55;8.35;;;19.10;90.60;;;;;;5035295;28;20497;-82
2023/06/22 04:17:56;;;;;;;13.60;8.50;;;19.10;90.80;;;;;;5036878;28;20363;-82
2023/06/22 04:20:22;;;;;;;16.23;9.93;;;19.10;90.90;;;;;;5035154;28;20529;-82
2023/06/22 04:22:47;;;;;;;16.33;9.60;;;19.10;91.00;;;;;;5019116;28;20041;-82
2023/06/22 04:25:14;;;;;;;17.77;10.32;;;19.10;91.10;;;;;;5018573;28;20022;-82
2023/06/22 04:27:42;;;;;;;12.55;9.57;;;19.20;91.20;;;;;;5018680;28;20025;-82
2023/06/22 04:30:08;;;;;;;15.45;9.85;;;19.20;91.40;;;;;;5018961;28;20037;-82
2023/06/22 04:32:35;;;;;;;12.63;9.77;;;19.20;91.50;;;;;;5018436;28;20033;-82
2023/06/22 04:35:04;;;;;;;15.82;11.35;;;19.20;91.70;;;;;;5036499;28;20378;-83
2023/06/22 04:37:30;;;;;;;16.85;11.90;;;19.30;91.90;;;;;;5036245;28;20032;-82
2023/06/22 04:39:55;;;;;;;15.52;12.10;;;19.30;92.00;;;;;;5034788;28;20452;-82
2023/06/22 04:42:21;;;;;;;16.00;11.80;;;19.30;92.10;;;;;;5034921;28;20036;-81
2023/06/22 04:44:47;;;;;;;17.33;12.63;;;19.30;92.20;;;;;;5034630;28;20117;-82
2023/06/22 04:47:12;;;;;;;19.75;13.20;;;19.40;92.30;;;;;;5037659;28;20030;-76
2023/06/22 04:49:40;;;;;;;16.17;13.23;;;19.40;92.50;;;;;;5027741;28;20040;-76
2023/06/22 04:52:07;;;;;;;17.45;13.40;;;19.40;92.50;;;;;;5050094;28;20025;-76
2023/06/22 04:54:34;;;;;;;16.35;13.13;;;19.40;92.70;;;;;;5051221;28;20056;-76
2023/06/22 04:57:01;;;;;;;17.75;13.05;;;19.40;92.70;;;;;;5053236;28;20013;-77
2023/06/22 04:59:29;;;;;;;17.88;13.88;;;19.50;92.90;;;;;;5019024;28;20059;-76
2023/06/22 05:02:02;;;;;;;17.20;13.32;;;19.50;93.00;;;;;;5035058;28;20108;-76
2023/06/22 05:04:32;;;;;;;17.73;13.05;;;19.50;93.10;;;;;;5016952;28;20037;-76
2023/06/22 05:07:00;;;;;;;20.35;12.98;;;19.60;93.20;;;;;;5034176;28;20029;-77
2023/06/22 05:09:26;;;;;;;18.48;14.32;;;19.60;93.30;;;;;;5034130;28;20025;-76
2023/06/22 05:11:51;;;;;;;18.10;13.65;;;19.70;93.40;;;;;;5018099;28;20030;-76
2023/06/22 05:14:18;;;;;;;17.58;13.63;;;19.70;93.40;;;;;;5055300;28;20358;-77
2023/06/22 05:16:44;;;;;;;19.77;14.30;;;19.80;93.50;;;;;;5054108;28;20070;-77
2023/06/22 05:19:10;;;;;;;16.70;12.82;;;19.80;93.60;;;;;;5037484;28;20112;-76
2023/06/22 05:21:37;;;;;;;18.23;13.48;;;19.90;93.70;;;;;;5037699;28;20134;-77
2023/06/22 05:24:03;;;;;;;20.63;14.32;;;19.90;93.70;;;;;;5017622;28;20501;-76
2023/06/22 05:26:34;;;;;;;16.38;13.05;;;19.90;93.60;;;;;;5033954;28;20498;-77
2023/06/22 05:29:02;;;;;;;17.05;14.30;;;20.00;93.70;;;;;;5035170;28;20473;-77
2023/06/22 05:31:28;;;;;;;19.38;14.63;;;20.00;93.60;;;;;;5033933;28;20064;-77
2023/06/22 05:33:55;;;;;;;17.83;14.02;;;20.00;93.90;;;;;;5047516;28;20083;-76
2023/06/22 05:36:24;;;;;;;19.35;13.55;;;20.00;93.60;;;;;;5044261;28;20033;-77
2023/06/22 05:38:50;;;;;;;17.38;13.82;;;20.10;93.60;;;;;;5043363;28;20030;-77
2023/06/22 05:41:16;;;;;;;18.42;13.32;;;20.10;93.60;;;;;;5028428;28;20032;-77
2023/06/22 05:43:42;;;;;;;18.88;12.43;;;20.10;93.60;;;;;;5040167;28;20482;-76
2023/06/22 05:46:07;;;;;;;16.08;12.02;;;20.10;93.50;;;;;;5017073;28;20052;-77
2023/06/22 05:48:33;;;;;;;17.15;13.18;;;20.20;93.60;;;;;;5016972;28;20040;-85
2023/06/22 05:50:59;;;;;;;14.07;11.10;;;20.20;93.50;;;;;;5033374;28;20497;-84
2023/06/22 05:53:25;;;;;;;13.48;10.52;;;20.30;93.80;;;;;;5017080;28;20563;-84
2023/06/22 05:55:51;;;;;;;14.65;10.63;;;20.30;93.50;;;;;;5034635;28;20061;-85
2023/06/22 05:58:16;;;;;;;15.15;12.07;;;20.30;93.50;;;;;;5034516;28;20109;-79
2023/06/22 06:00:43;;;;;;;16.23;10.85;;;20.40;93.50;;;;;;5000762;28;20386;-86
2023/06/22 06:03:09;;;;;;;15.35;10.13;;;20.40;93.50;;;;;;5033301;28;20481;-84
2023/06/22 06:05:36;;;;;;;16.17;10.55;;;20.40;93.50;;;;;;5033076;28;20029;-82
2023/06/22 06:08:04;;;;;;;14.98;11.38;;;20.60;93.50;;;;;;5049078;28;20441;-82
2023/06/22 06:10:30;;;;;;;13.50;8.80;;;20.60;93.40;;;;;;5053159;28;20043;-82
2023/06/22 06:12:56;;;;;;;14.18;9.85;;;20.70;93.40;;;;;;5052789;28;20075;-81
2023/06/22 06:15:22;;;;;;;16.45;9.80;;;20.80;93.30;;;;;;5036283;28;20028;-83
2023/06/22 06:17:52;;;;;;;12.40;9.45;;;20.80;93.20;;;;;;5053940;28;20032;-82
2023/06/22 06:20:22;;;;;;;13.00;10.02;;;20.80;93.00;;;;;;5035282;28;20052;-81
2023/06/22 06:22:49;;;;;;;12.25;8.65;;;20.90;92.90;;;;;;5054222;28;20454;-82
2023/06/22 06:25:19;;;;;;;11.40;8.20;;;21.00;92.80;;;;;;5052778;28;20367;-82
2023/06/22 06:27:49;;;;;;;14.38;9.40;;;21.10;92.70;;;;;;5036904;28;20055;-82
2023/06/22 06:30:18;;;;;;;13.55;9.05;;;21.10;92.50;;;;;;5052854;28;20068;-81
2023/06/22 06:32:45;;;;;;;12.45;8.70;;;21.20;92.50;;;;;;5051927;28;20033;-82
2023/06/22 06:35:12;;;;;;;12.50;9.05;;;21.30;92.40;;;;;;5052448;28;20021;-82
2023/06/22 06:37:43;;;;;;;10.20;8.13;;;21.40;92.30;;;;;;5053548;28;20052;-82
2023/06/22 06:40:10;;;;;;;12.25;9.02;;;21.50;92.30;;;;;;5036676;28;20456;-82
2023/06/22 06:42:41;;;;;;;12.23;8.40;;;21.50;92.10;;;;;;5036417;28;20151;-81
2023/06/22 06:45:16;;;;;;;12.45;9.70;;;21.60;91.90;;;;;;5054051;28;20032;-81
2023/06/22 06:47:42;;;;;;;12.40;8.98;;;21.70;91.80;;;;;;5053532;28;20082;-82
2023/06/22 06:50:09;;;;;;;11.98;8.00;;;21.80;91.60;;;;;;5035867;28;20116;-81
2023/06/22 06:52:35;;;;;;;11.23;8.32;;;21.90;91.40;;;;;;5052409;28;20021;-82
2023/06/22 06:55:01;;;;;;;10.40;7.45;;;22.00;91.30;;;;;;5053649;28;20377;-83
2023/06/22 06:57:28;;;;;;;10.45;6.95;;;22.10;91.10;;;;;;5035643;28;20021;-83
2023/06/22 06:59:55;;;;;;;11.60;8.18;;;22.20;91.00;;;;;;5052658;28;20461;-84
2023/06/22 07:02:21;;;;;;;12.95;7.55;;;22.30;90.80;;;;;;5036072;28;20059;-82
2023/06/22 07:04:48;;;;;;;10.90;7.43;;;22.40;90.60;;;;;;5052345;28;20029;-82
2023/06/22 07:07:13;;;;;;;11.80;7.70;;;22.50;90.40;;;;;;5052169;28;20124;-83
2023/06/22 07:09:39;;;;;;;9.48;7.25;;;22.50;90.20;;;;;;5053319;28;20108;-83
2023/06/22 07:12:05;;;;;;;10.80;7.22;;;22.60;90.10;;;;;;5035352;28;20132;-81
2023/06/22 07:14:31;;;;;;;9.00;7.32;;;22.70;89.70;;;;;;5035544;28;20021;-82
2023/06/22 07:16:57;;;;;;;8.90;6.82;;;22.80;89.10;;;;;;5052046;28;20017;-82
2023/06/22 07:19:27;;;;;;;10.18;7.00;;;22.80;88.70;;;;;;5053241;28;20551;-83
2023/06/22 07:21:54;;;;;;;12.27;6.97;;;22.80;88.30;;;;;;5035344;28;20061;-82
2023/06/22 07:24:24;;;;;;;10.30;6.50;;;22.90;87.90;;;;;;5035481;28;20025;-78
2023/06/22 07:26:50;;;;;;;11.25;6.07;;;22.90;87.60;;;;;;5051875;28;20037;-78
2023/06/22 07:29:20;;;;;;;12.73;6.32;;;23.00;87.20;;;;;;5051709;28;20036;-78
2023/06/22 07:31:47;;;;;;;10.07;6.40;;;23.00;86.70;;;;;;5051897;28;20017;-78
2023/06/22 07:34:13;;;;;;;9.63;6.57;;;23.10;86.40;;;;;;5051792;28;20362;-78
2023/06/22 07:36:39;;;;;;;9.60;6.43;;;23.20;86.10;;;;;;5051750;28;20017;-81
2023/06/22 07:39:05;;;;;;;10.40;6.43;;;23.30;85.60;;;;;;5035265;28;20029;-81
2023/06/22 07:41:31;;;;;;;7.47;5.18;;;23.30;85.30;;;;;;5051667;28;20036;-83
2023/06/22 07:43:56;;;;;;;8.85;5.35;;;23.40;85.10;;;;;;5036259;28;20029;-83
2023/06/22 07:46:22;;;;;;;7.63;5.47;;;23.40;84.80;;;;;;5057120;28;20024;-83
2023/06/22 07:48:48;;;;;;;8.93;5.10;;;23.60;84.70;;;;;;5022578;28;20036;-81
2023/06/22 07:51:14;;;;;;;8.32;4.78;;;23.70;84.40;;;;;;5022706;28;20021;-78
2023/06/22 07:53:43;;;;;;;7.43;4.97;;;23.80;84.20;;;;;;5055692;28;20025;-82
2023/06/22 07:56:13;;;;;;;6.60;4.22;;;23.90;83.80;;;;;;5055648;28;20416;-82
2023/06/22 07:58:39;;;;;;;6.05;4.35;;;24.00;83.30;;;;;;5056847;28;20071;-82
2023/06/22 08:01:05;;;;;;;7.13;4.97;;;24.10;82.70;;;;;;5055749;28;20033;-83
2023/06/22 08:03:31;;;;;;;7.22;4.97;;;24.10;81.90;;;;;;5055483;28;20068;-83
2023/06/22 08:05:57;;;;;;;9.02;5.22;;;24.20;81.60;;;;;;5055517;28;20025;-82
2023/06/22 08:08:23;;;;;;;7.25;4.68;;;24.30;81.30;;;;;;5022360;28;20079;-78
2023/06/22 08:10:49;;;;;;;7.07;4.13;;;24.40;80.70;;;;;;5056759;28;20021;-78
2023/06/22 08:13:14;;;;;;;8.13;5.07;;;24.40;80.80;;;;;;5055573;28;20477;-79
2023/06/22 08:15:40;;;;;;;6.95;4.28;;;24.50;79.80;;;;;;5038871;28;20107;-78
2023/06/22 08:18:06;;;;;;;6.60;4.30;;;24.50;79.60;;;;;;5055118;28;20503;-78
2023/06/22 08:20:32;;;;;;;7.28;4.57;;;24.60;79.40;;;;;;5038580;28;20615;-78
2023/06/22 08:23:04;;;;;;;8.02;4.88;;;24.70;79.00;;;;;;5056435;28;20115;-78
2023/06/22 08:25:30;;;;;;;7.70;4.32;;;24.80;78.70;;;;;;5039229;28;20082;-78
2023/06/22 08:27:56;;;;;;;5.05;3.47;;;24.90;78.40;;;;;;5021968;28;20428;-78
2023/06/22 08:30:21;;;;;;;6.65;4.05;;;25.00;78.00;;;;;;5038364;28;20035;-78
2023/06/22 08:32:47;;;;;;;8.63;3.70;;;25.10;77.30;;;;;;5038568;28;20473;-78
2023/06/22 08:35:13;;;;;;;5.45;3.28;;;25.20;76.70;;;;;;5055167;28;20033;-79
2023/06/22 08:37:39;;;;;;;7.10;3.35;;;25.40;76.40;;;;;;5038543;28;20028;-83
2023/06/22 08:40:10;;;;;;;5.30;2.95;;;25.50;75.60;;;;;;5038443;28;20036;-83
2023/06/22 08:42:41;;;;;;;6.18;2.95;;;25.70;75.10;;;;;;5054854;28;20469;-83
2023/06/22 08:45:07;;;;;;;6.35;3.25;;;25.80;74.60;;;;;;5056962;28;20490;-82
2023/06/22 08:47:33;;;;;;;6.75;3.47;;;25.90;74.20;;;;;;5054560;28;20017;-82
2023/06/22 08:49:58;;;;;;;7.57;3.50;;;26.10;73.70;;;;;;5054908;28;20086;-81
2023/06/22 08:52:24;;;;;;;8.63;3.63;;;26.20;72.90;;;;;;5038277;28;20155;-83
2023/06/22 08:54:51;;;;;;;5.50;3.15;;;26.20;71.80;;;;;;5054167;28;20044;-83
2023/06/22 08:57:16;;;;;;;5.18;3.30;;;26.30;70.90;;;;;;5053962;28;20013;-82
2023/06/22 08:59:42;;;;;;;5.63;3.40;;;26.20;70.70;;;;;;5054490;28;20495;-82
2023/06/22 09:02:09;;;;;;;4.63;2.80;;;26.30;70.60;;;;;;5021524;28;20029;-82
2023/06/22 09:04:34;;;;;;;5.95;3.42;;;26.30;70.40;;;;;;5055984;28;20377;-83
2023/06/22 09:07:01;;;;;;;6.53;3.13;;;26.40;70.30;;;;;;5054424;28;20029;-81
2023/06/22 09:09:27;;;;;;;6.18;2.88;;;26.50;70.10;;;;;;5054584;28;20024;-83
2023/06/22 09:11:53;;;;;;;5.63;2.95;;;26.60;70.10;;;;;;5037754;28;20036;-84
2023/06/22 09:14:18;;;;;;;6.65;2.42;;;26.80;69.70;;;;;;5054393;28;20025;-82
2023/06/22 09:16:44;;;;;;;8.55;3.08;;;26.90;69.30;;;;;;5055560;28;20116;-83
2023/06/22 09:19:10;;;;;;;5.63;2.85;;;27.00;68.60;;;;;;5037431;28;20469;-83
2023/06/22 09:21:35;;;;;;;5.28;2.25;;;27.10;68.10;;;;;;5037487;28;20136;-83
2023/06/22 09:24:01;;;;;;;4.88;2.58;;;27.20;67.70;;;;;;5054021;28;20033;-84
2023/06/22 09:26:27;;;;;;;6.07;2.75;;;27.20;67.00;;;;;;5054072;28;20469;-84
2023/06/22 09:28:53;;;;;;;5.65;2.90;;;27.30;66.30;;;;;;5037363;28;20040;-84
2023/06/22 09:31:25;;;;;;;6.03;3.15;;;27.30;65.40;;;;;;5037382;28;20139;-83
2023/06/22 09:33:51;;;;;;;5.05;3.35;;;27.30;65.30;;;;;;5038549;28;20036;-83
2023/06/22 09:36:17;;;;;;;6.18;2.55;;;27.30;64.60;;;;;;5037394;28;20481;-78
2023/06/22 09:38:43;;;;;;;6.75;3.53;;;27.20;63.70;;;;;;5053765;28;20056;-79
2023/06/22 09:41:08;;;;;;;5.95;2.95;;;27.20;63.50;;;;;;5020541;28;20074;-78
2023/06/22 09:43:36;;;;;;;4.00;2.28;;;27.10;63.50;;;;;;5053982;28;20382;-78
2023/06/22 09:46:02;;;;;;;6.03;2.03;;;27.00;63.30;;;;;;5021020;28;20536;-79
2023/06/22 09:48:29;;;;;;;3.67;2.30;;;27.00;63.30;;;;;;5053440;28;20378;-78
2023/06/22 09:50:54;;;;;;;6.65;2.90;;;27.00;63.00;;;;;;5053644;28;20053;-79
2023/06/22 09:53:20;;;;;;;3.88;2.33;;;27.00;62.60;;;;;;5037391;28;20535;-82
2023/06/22 09:55:46;;;;;;;3.90;1.92;;;26.90;62.50;;;;;;5037329;28;20385;-82
2023/06/22 09:58:12;;;;;;;4.88;1.50;;;26.90;62.20;;;;;;5036968;28;20378;-83
2023/06/22 10:00:38;;;;;;;6.40;2.22;;;26.80;61.90;;;;;;5036612;28;20025;-83
2023/06/22 10:03:03;;;;;;;3.88;2.10;;;26.80;62.00;;;;;;5020183;28;20028;-78
2023/06/22 10:05:29;;;;;;;6.22;2.33;;;26.80;62.40;;;;;;5036703;28;20039;-79
2023/06/22 10:07:55;;;;;;;4.03;1.95;;;26.80;62.20;;;;;;5036453;28;20116;-79
2023/06/22 10:10:20;;;;;;;4.68;2.08;;;26.70;61.90;;;;;;5054261;28;20080;-79
2023/06/22 10:12:48;;;;;;;4.93;2.33;;;26.70;62.10;;;;;;5019906;28;20473;-78
2023/06/22 10:15:14;;;;;;;5.65;2.55;;;26.60;62.10;;;;;;5053189;28;20063;-83
2023/06/22 10:17:39;;;;;;;6.10;2.20;;;26.60;62.00;;;;;;5053200;28;20022;-82
2023/06/22 10:20:12;;;;;;;4.15;2.17;;;26.50;62.10;;;;;;5036096;28;20060;-82
2023/06/22 10:22:42;;;;;;;5.03;2.20;;;26.50;62.20;;;;;;5052998;28;20040;-78
2023/06/22 10:25:08;;;;;;;4.20;2.10;;;26.40;62.30;;;;;;5054053;28;20056;-79
2023/06/22 10:27:35;;;;;;;4.65;2.05;;;26.40;63.00;;;;;;5054012;28;20025;-79
2023/06/22 10:30:00;;;;;;;4.72;2.20;;;26.40;62.30;;;;;;5036052;28;20025;-79
2023/06/22 10:32:27;;;;;;;4.72;2.42;;;26.50;63.00;;;;;;5053160;28;20040;-79
2023/06/22 10:34:53;;;;;;;6.25;2.33;;;26.40;62.20;;;;;;5053748;28;20070;-78
2023/06/22 10:37:19;;;;;;;8.15;2.20;;;26.40;62.30;;;;;;5035881;28;20021;-79
2023/06/22 10:39:44;;;;;;;3.55;2.00;;;26.40;62.60;;;;;;5035910;28;20059;-78
2023/06/22 10:42:10;;;;;;;4.95;2.55;;;26.40;62.80;;;;;;5052616;28;20097;-78
2023/06/22 10:44:35;;;;;;;3.90;2.17;;;26.40;62.90;;;;;;5019487;28;20037;-78
2023/06/22 10:47:01;;;;;;;4.25;1.95;;;26.40;63.10;;;;;;5052802;28;20047;-78
2023/06/22 10:49:27;;;;;;;4.20;2.50;;;26.40;63.20;;;;;;5053543;28;20112;-84
2023/06/22 10:51:52;;;;;;;4.80;2.78;;;26.50;63.10;;;;;;5035631;28;20031;-83
2023/06/22 10:54:19;;;;;;;5.03;2.70;;;26.40;63.10;;;;;;5035749;28;20037;-82
2023/06/22 10:56:44;;;;;;;6.82;3.03;;;26.50;63.00;;;;;;5053673;28;20021;-83
2023/06/22 10:59:10;;;;;;;5.32;2.85;;;26.50;63.20;;;;;;5035926;28;20029;-83
2023/06/22 11:01:36;;;;;;;5.32;2.72;;;26.40;63.20;;;;;;5053504;28;20366;-78
2023/06/22 11:04:02;;;;;;;5.72;2.75;;;26.40;63.30;;;;;;5053567;28;20478;-78
2023/06/22 11:06:28;;;;;;;6.03;2.85;;;26.40;63.20;;;;;;5035923;28;20115;-79
2023/06/22 11:08:53;;;;;;;5.43;2.63;;;26.40;63.20;;;;;;5035585;28;20453;-78
2023/06/22 11:11:19;;;;;;;6.47;3.13;;;26.40;63.30;;;;;;5052230;28;20029;-77
2023/06/22 11:13:45;;;;;;;7.57;2.75;;;26.30;63.30;;;;;;5035350;28;20021;-78
2023/06/22 11:16:11;;;;;;;5.95;2.25;;;26.30;63.40;;;;;;5035417;28;20037;-78
2023/06/22 11:18:36;;;;;;;5.28;2.95;;;26.30;63.20;;;;;;5035010;28;20420;-77
2023/06/22 11:21:02;;;;;;;5.68;2.83;;;26.30;63.10;;;;;;5053047;28;20126;-83
2023/06/22 11:23:28;;;;;;;6.13;2.85;;;26.30;63.30;;;;;;5035484;28;20029;-82
2023/06/22 11:25:54;;;;;;;6.65;3.30;;;26.20;63.60;;;;;;5051962;28;20108;-83
2023/06/22 11:28:20;;;;;;;5.57;2.72;;;26.20;64.10;;;;;;5051932;28;20029;-82
2023/06/22 11:30:46;;;;;;;6.03;3.38;;;26.20;64.60;;;;;;5036069;28;20366;-82
2023/06/22 11:33:12;;;;;;;5.45;3.25;;;26.20;65.20;;;;;;5052111;28;20388;-82
2023/06/22 11:35:37;;;;;;;9.15;4.40;;;26.10;65.30;;;;;;5053217;28;20112;-82
2023/06/22 11:38:04;;;;;;;8.32;4.63;;;26.10;66.30;;;;;;5052192;28;20044;-80
2023/06/22 11:40:30;;;;;;;6.88;4.35;;;26.00;66.30;;;;;;5051774;28;20033;-82
2023/06/22 11:42:56;;;;;;;5.30;3.83;;;25.90;67.40;;;;;;5035321;28;20029;-82
2023/06/22 11:45:22;;;;;;;6.72;3.97;;;25.90;67.70;;;;;;5053071;28;20128;-82
2023/06/22 11:47:47;;;;;;;5.93;4.18;;;25.80;68.00;;;;;;5053163;28;20029;-82
2023/06/22 11:50:13;;;;;;;7.10;3.40;;;25.70;68.30;;;;;;5052993;28;20385;-82
2023/06/22 11:52:39;;;;;;;6.80;3.65;;;25.60;68.60;;;;;;5051852;28;20024;-82
2023/06/22 11:55:06;;;;;;;6.15;4.30;;;25.60;69.20;;;;;;5051651;28;20029;-82
2023/06/22 11:57:37;;;;;;;6.03;3.60;;;25.50;69.60;;;;;;5035985;28;20041;-82
2023/06/22 12:00:17;;;;;;;6.97;4.30;;;25.40;69.90;;;;;;5053056;28;20517;-83
2023/06/22 12:02:44;;;;;;;7.25;4.57;;;25.40;70.40;;;;;;5036875;28;20029;-78
2023/06/22 12:05:10;;;;;;;8.57;4.43;;;25.30;71.20;;;;;;5051706;28;20473;-77
2023/06/22 12:07:37;;;;;;;7.10;5.05;;;25.20;72.50;;;;;;5034972;28;20037;-78
2023/06/22 12:10:03;;;;;;;8.10;4.43;;;25.10;73.60;;;;;;5051562;28;20053;-77
2023/06/22 12:12:29;;;;;;;9.85;5.82;;;25.00;73.40;;;;;;5034864;28;20505;-77
2023/06/22 12:14:54;;;;;;;10.50;5.03;;;25.00;74.30;;;;;;5034934;28;20025;-82
2023/06/22 12:17:20;;;;;;;7.55;5.18;;;24.80;74.90;;;;;;5051335;28;20509;-82
2023/06/22 12:19:46;;;;;;;8.32;5.22;;;24.80;75.10;;;;;;5034594;28;20087;-82
2023/06/22 12:22:11;;;;;;;10.85;5.60;;;24.70;75.50;;;;;;5051346;28;20036;-82
2023/06/22 12:24:37;;;;;;;9.90;6.13;;;24.60;76.30;;;;;;5034393;28;20029;-83
2023/06/22 12:27:03;;;;;;;11.20;6.70;;;24.60;77.10;;;;;;5034942;28;20040;-82
2023/06/22 12:29:29;;;;;;;9.52;6.03;;;24.50;77.80;;;;;;5051451;28;20029;-82
2023/06/22 12:31:55;;;;;;;10.10;6.28;;;24.40;77.90;;;;;;5055149;28;20024;-82
2023/06/22 12:34:20;;;;;;;10.23;6.43;;;24.30;78.30;;;;;;5056408;28;20029;-83
2023/06/22 12:36:48;;;;;;;8.77;6.60;;;24.20;78.80;;;;;;5054893;28;20140;-77
2023/06/22 12:39:14;;;;;;;8.88;6.53;;;24.20;79.20;;;;;;5022290;28;20447;-77
2023/06/22 12:41:39;;;;;;;9.20;6.80;;;24.10;79.60;;;;;;5038769;28;20028;-78